sensor_id;sensor_type;location;lat;lon;timestamp;P1;durP1;ratioP1;P2;durP2;ratioP2
50815;SDS011;39717;47.324;8.788;2023-02-28T00:00:20;10.63;;;8.63;;
50815;SDS011;39717;47.324;8.788;2023-02-28T00:02:47;11.33;;;8.60;;
50815;SDS011;39717;47.324;8.788;2023-02-28T00:05:14;12.70;;;8.30;;
50815;SDS011;39717;47.324;8.788;2023-02-28T00:07:40;12.37;;;8.50;;
50815;SDS011;39717;47.324;8.788;2023-02-28T00:10:08;10.80;;;8.67;;
50815;SDS011;39717;47.324;8.788;2023-02-28T00:12:34;12.93;;;8.87;;
50815;SDS011;39717;47.324;8.788;2023-02-28T00:15:01;11.83;;;8.70;;
50815;SDS011;39717;47.324;8.788;2023-02-28T00:17:27;14.43;;;9.10;;
50815;SDS011;39717;47.324;8.788;2023-02-28T00:19:54;13.20;;;9.20;;
50815;SDS011;39717;47.324;8.788;2023-02-28T00:22:21;14.57;;;9.37;;
50815;SDS011;39717;47.324;8.788;2023-02-28T00:24:47;12.67;;;8.53;;
50815;SDS011;39717;47.324;8.788;2023-02-28T00:27:13;11.13;;;8.30;;
50815;SDS011;39717;47.324;8.788;2023-02-28T00:29:40;13.00;;;8.63;;
50815;SDS011;39717;47.324;8.788;2023-02-28T00:32:06;10.50;;;8.67;;
50815;SDS011;39717;47.324;8.788;2023-02-28T00:34:32;12.33;;;9.50;;
50815;SDS011;39717;47.324;8.788;2023-02-28T00:37:03;15.80;;;8.63;;
50815;SDS011;39717;47.324;8.788;2023-02-28T00:39:30;13.67;;;8.77;;
50815;SDS011;39717;47.324;8.788;2023-02-28T00:41:56;12.97;;;9.23;;
50815;SDS011;39717;47.324;8.788;2023-02-28T00:44:22;11.10;;;9.13;;
50815;SDS011;39717;47.324;8.788;2023-02-28T00:46:48;13.87;;;9.43;;
50815;SDS011;39717;47.324;8.788;2023-02-28T00:49:14;12.50;;;9.10;;
50815;SDS011;39717;47.324;8.788;2023-02-28T00:51:40;12.53;;;9.10;;
50815;SDS011;39717;47.324;8.788;2023-02-28T00:54:06;11.73;;;9.10;;
50815;SDS011;39717;47.324;8.788;2023-02-28T00:56:32;12.03;;;9.20;;
50815;SDS011;39717;47.324;8.788;2023-02-28T00:58:58;11.43;;;9.43;;
50815;SDS011;39717;47.324;8.788;2023-02-28T01:01:24;12.03;;;8.93;;
50815;SDS011;39717;47.324;8.788;2023-02-28T01:03:50;14.30;;;9.80;;
50815;SDS011;39717;47.324;8.788;2023-02-28T01:06:16;14.80;;;8.77;;
50815;SDS011;39717;47.324;8.788;2023-02-28T01:08:42;13.47;;;9.03;;
50815;SDS011;39717;47.324;8.788;2023-02-28T01:11:12;12.93;;;8.93;;
50815;SDS011;39717;47.324;8.788;2023-02-28T01:13:40;14.40;;;9.07;;
50815;SDS011;39717;47.324;8.788;2023-02-28T01:16:07;13.00;;;8.73;;
50815;SDS011;39717;47.324;8.788;2023-02-28T01:18:33;13.30;;;9.97;;
50815;SDS011;39717;47.324;8.788;2023-02-28T01:21:03;17.77;;;10.30;;
50815;SDS011;39717;47.324;8.788;2023-02-28T01:23:29;14.17;;;9.33;;
50815;SDS011;39717;47.324;8.788;2023-02-28T01:25:55;10.80;;;8.77;;
50815;SDS011;39717;47.324;8.788;2023-02-28T01:28:21;13.37;;;9.57;;
50815;SDS011;39717;47.324;8.788;2023-02-28T01:30:48;14.80;;;9.10;;
50815;SDS011;39717;47.324;8.788;2023-02-28T01:33:15;14.13;;;8.87;;
50815;SDS011;39717;47.324;8.788;2023-02-28T01:35:41;13.37;;;9.23;;
50815;SDS011;39717;47.324;8.788;2023-02-28T01:38:07;11.90;;;9.20;;
50815;SDS011;39717;47.324;8.788;2023-02-28T01:40:33;13.37;;;9.93;;
50815;SDS011;39717;47.324;8.788;2023-02-28T01:42:59;15.87;;;9.40;;
50815;SDS011;39717;47.324;8.788;2023-02-28T01:45:26;13.10;;;9.30;;
50815;SDS011;39717;47.324;8.788;2023-02-28T01:47:54;13.80;;;9.87;;
50815;SDS011;39717;47.324;8.788;2023-02-28T01:50:23;13.43;;;9.80;;
50815;SDS011;39717;47.324;8.788;2023-02-28T01:52:50;16.17;;;10.80;;
50815;SDS011;39717;47.324;8.788;2023-02-28T01:55:18;11.47;;;9.60;;
50815;SDS011;39717;47.324;8.788;2023-02-28T01:57:46;14.10;;;9.60;;
50815;SDS011;39717;47.324;8.788;2023-02-28T02:00:15;12.40;;;9.60;;
50815;SDS011;39717;47.324;8.788;2023-02-28T02:02:43;14.30;;;9.83;;
50815;SDS011;39717;47.324;8.788;2023-02-28T02:05:11;13.87;;;10.07;;
50815;SDS011;39717;47.324;8.788;2023-02-28T02:07:38;13.27;;;9.47;;
50815;SDS011;39717;47.324;8.788;2023-02-28T02:12:52;10.97;;;8.60;;
50815;SDS011;39717;47.324;8.788;2023-02-28T02:15:42;12.27;;;9.77;;
50815;SDS011;39717;47.324;8.788;2023-02-28T02:20:58;13.20;;;9.97;;
50815;SDS011;39717;47.324;8.788;2023-02-28T02:29:11;12.73;;;8.67;;
50815;SDS011;39717;47.324;8.788;2023-02-28T02:36:41;14.57;;;10.53;;
50815;SDS011;39717;47.324;8.788;2023-02-28T02:39:17;12.60;;;9.47;;
50815;SDS011;39717;47.324;8.788;2023-02-28T02:41:54;13.00;;;9.83;;
50815;SDS011;39717;47.324;8.788;2023-02-28T02:44:25;16.37;;;10.03;;
50815;SDS011;39717;47.324;8.788;2023-02-28T02:46:54;13.73;;;10.23;;
50815;SDS011;39717;47.324;8.788;2023-02-28T02:49:22;15.87;;;10.73;;
50815;SDS011;39717;47.324;8.788;2023-02-28T02:51:49;13.40;;;10.47;;
50815;SDS011;39717;47.324;8.788;2023-02-28T02:54:21;13.50;;;10.00;;
50815;SDS011;39717;47.324;8.788;2023-02-28T02:56:49;13.57;;;10.30;;
50815;SDS011;39717;47.324;8.788;2023-02-28T02:59:17;12.40;;;10.60;;
50815;SDS011;39717;47.324;8.788;2023-02-28T03:01:46;11.63;;;9.83;;
50815;SDS011;39717;47.324;8.788;2023-02-28T03:04:18;13.67;;;9.57;;
50815;SDS011;39717;47.324;8.788;2023-02-28T03:06:45;13.00;;;10.37;;
50815;SDS011;39717;47.324;8.788;2023-02-28T03:09:11;14.43;;;10.37;;
50815;SDS011;39717;47.324;8.788;2023-02-28T03:11:37;12.10;;;9.37;;
50815;SDS011;39717;47.324;8.788;2023-02-28T03:17:10;13.90;;;9.97;;
50815;SDS011;39717;47.324;8.788;2023-02-28T03:27:29;13.80;;;10.07;;
50815;SDS011;39717;47.324;8.788;2023-02-28T03:32:47;14.77;;;10.30;;
50815;SDS011;39717;47.324;8.788;2023-02-28T03:35:16;13.40;;;9.10;;
50815;SDS011;39717;47.324;8.788;2023-02-28T03:37:47;14.47;;;9.50;;
50815;SDS011;39717;47.324;8.788;2023-02-28T03:40:17;13.60;;;8.67;;
50815;SDS011;39717;47.324;8.788;2023-02-28T03:42:45;11.80;;;9.03;;
50815;SDS011;39717;47.324;8.788;2023-02-28T03:45:14;12.17;;;9.23;;
50815;SDS011;39717;47.324;8.788;2023-02-28T03:47:44;13.13;;;9.90;;
50815;SDS011;39717;47.324;8.788;2023-02-28T03:50:22;13.40;;;10.03;;
50815;SDS011;39717;47.324;8.788;2023-02-28T03:53:12;15.43;;;10.43;;
50815;SDS011;39717;47.324;8.788;2023-02-28T03:55:41;15.13;;;9.63;;
50815;SDS011;39717;47.324;8.788;2023-02-28T03:58:13;14.80;;;9.63;;
50815;SDS011;39717;47.324;8.788;2023-02-28T04:00:43;16.60;;;10.23;;
50815;SDS011;39717;47.324;8.788;2023-02-28T04:03:10;13.40;;;9.83;;
50815;SDS011;39717;47.324;8.788;2023-02-28T04:05:53;14.53;;;9.43;;
50815;SDS011;39717;47.324;8.788;2023-02-28T04:08:20;14.27;;;9.10;;
50815;SDS011;39717;47.324;8.788;2023-02-28T04:11:01;14.10;;;10.20;;
50815;SDS011;39717;47.324;8.788;2023-02-28T04:13:29;14.77;;;10.17;;
50815;SDS011;39717;47.324;8.788;2023-02-28T04:15:55;14.07;;;9.73;;
50815;SDS011;39717;47.324;8.788;2023-02-28T04:18:21;11.97;;;9.33;;
50815;SDS011;39717;47.324;8.788;2023-02-28T04:20:47;12.67;;;9.23;;
50815;SDS011;39717;47.324;8.788;2023-02-28T04:23:13;14.13;;;10.13;;
50815;SDS011;39717;47.324;8.788;2023-02-28T04:25:39;13.73;;;9.70;;
50815;SDS011;39717;47.324;8.788;2023-02-28T04:28:06;14.50;;;10.20;;
50815;SDS011;39717;47.324;8.788;2023-02-28T04:30:32;15.07;;;10.03;;
50815;SDS011;39717;47.324;8.788;2023-02-28T04:32:58;12.87;;;9.43;;
50815;SDS011;39717;47.324;8.788;2023-02-28T04:35:24;12.00;;;8.90;;
50815;SDS011;39717;47.324;8.788;2023-02-28T04:37:50;14.50;;;9.77;;
50815;SDS011;39717;47.324;8.788;2023-02-28T04:40:16;12.70;;;9.87;;
50815;SDS011;39717;47.324;8.788;2023-02-28T04:42:42;12.40;;;9.90;;
50815;SDS011;39717;47.324;8.788;2023-02-28T04:45:08;12.17;;;9.37;;
50815;SDS011;39717;47.324;8.788;2023-02-28T04:47:35;14.57;;;9.23;;
50815;SDS011;39717;47.324;8.788;2023-02-28T04:50:01;16.80;;;10.57;;
50815;SDS011;39717;47.324;8.788;2023-02-28T04:52:29;14.50;;;9.80;;
50815;SDS011;39717;47.324;8.788;2023-02-28T04:54:55;15.30;;;9.70;;
50815;SDS011;39717;47.324;8.788;2023-02-28T04:57:21;14.00;;;10.20;;
50815;SDS011;39717;47.324;8.788;2023-02-28T04:59:47;15.00;;;10.13;;
50815;SDS011;39717;47.324;8.788;2023-02-28T05:02:13;13.33;;;9.63;;
50815;SDS011;39717;47.324;8.788;2023-02-28T05:04:39;13.17;;;9.83;;
50815;SDS011;39717;47.324;8.788;2023-02-28T05:07:05;13.47;;;9.53;;
50815;SDS011;39717;47.324;8.788;2023-02-28T05:09:31;14.10;;;10.00;;
50815;SDS011;39717;47.324;8.788;2023-02-28T05:11:58;12.43;;;9.57;;
50815;SDS011;39717;47.324;8.788;2023-02-28T05:14:24;14.50;;;9.77;;
50815;SDS011;39717;47.324;8.788;2023-02-28T05:16:50;12.00;;;9.60;;
50815;SDS011;39717;47.324;8.788;2023-02-28T05:19:16;13.37;;;8.93;;
50815;SDS011;39717;47.324;8.788;2023-02-28T05:21:52;13.47;;;9.93;;
50815;SDS011;39717;47.324;8.788;2023-02-28T05:24:19;16.20;;;10.70;;
50815;SDS011;39717;47.324;8.788;2023-02-28T05:26:48;12.67;;;10.07;;
50815;SDS011;39717;47.324;8.788;2023-02-28T05:29:16;14.53;;;9.90;;
50815;SDS011;39717;47.324;8.788;2023-02-28T05:31:42;14.23;;;10.00;;
50815;SDS011;39717;47.324;8.788;2023-02-28T05:34:08;15.23;;;10.10;;
50815;SDS011;39717;47.324;8.788;2023-02-28T05:36:37;12.00;;;9.07;;
50815;SDS011;39717;47.324;8.788;2023-02-28T05:39:07;13.60;;;9.30;;
50815;SDS011;39717;47.324;8.788;2023-02-28T05:41:38;16.10;;;10.37;;
50815;SDS011;39717;47.324;8.788;2023-02-28T05:44:04;14.53;;;9.50;;
50815;SDS011;39717;47.324;8.788;2023-02-28T05:46:30;13.63;;;9.87;;
50815;SDS011;39717;47.324;8.788;2023-02-28T05:48:56;14.43;;;10.17;;
50815;SDS011;39717;47.324;8.788;2023-02-28T05:51:25;14.90;;;9.97;;
50815;SDS011;39717;47.324;8.788;2023-02-28T05:53:51;14.77;;;10.07;;
50815;SDS011;39717;47.324;8.788;2023-02-28T05:56:17;15.30;;;9.77;;
50815;SDS011;39717;47.324;8.788;2023-02-28T05:58:43;16.17;;;10.17;;
50815;SDS011;39717;47.324;8.788;2023-02-28T06:01:23;13.23;;;9.40;;
50815;SDS011;39717;47.324;8.788;2023-02-28T06:03:51;13.33;;;9.57;;
50815;SDS011;39717;47.324;8.788;2023-02-28T06:06:17;12.87;;;9.23;;
50815;SDS011;39717;47.324;8.788;2023-02-28T06:08:43;13.93;;;9.90;;
50815;SDS011;39717;47.324;8.788;2023-02-28T06:11:10;14.03;;;10.00;;
50815;SDS011;39717;47.324;8.788;2023-02-28T06:13:37;17.20;;;11.23;;
50815;SDS011;39717;47.324;8.788;2023-02-28T06:16:03;14.33;;;10.43;;
50815;SDS011;39717;47.324;8.788;2023-02-28T06:18:29;14.10;;;9.97;;
50815;SDS011;39717;47.324;8.788;2023-02-28T06:20:55;14.40;;;10.53;;
50815;SDS011;39717;47.324;8.788;2023-02-28T06:23:21;13.03;;;9.77;;
50815;SDS011;39717;47.324;8.788;2023-02-28T06:25:48;14.73;;;10.13;;
50815;SDS011;39717;47.324;8.788;2023-02-28T06:28:15;14.47;;;9.93;;
50815;SDS011;39717;47.324;8.788;2023-02-28T06:30:41;15.13;;;9.50;;
50815;SDS011;39717;47.324;8.788;2023-02-28T06:33:07;14.03;;;9.57;;
50815;SDS011;39717;47.324;8.788;2023-02-28T06:35:33;12.07;;;9.47;;
50815;SDS011;39717;47.324;8.788;2023-02-28T06:37:59;11.60;;;8.93;;
50815;SDS011;39717;47.324;8.788;2023-02-28T06:40:25;14.23;;;10.00;;
50815;SDS011;39717;47.324;8.788;2023-02-28T06:42:51;14.30;;;9.90;;
50815;SDS011;39717;47.324;8.788;2023-02-28T06:45:17;16.07;;;10.30;;
50815;SDS011;39717;47.324;8.788;2023-02-28T06:47:44;14.33;;;9.87;;
50815;SDS011;39717;47.324;8.788;2023-02-28T06:50:10;13.17;;;9.33;;
50815;SDS011;39717;47.324;8.788;2023-02-28T06:52:37;13.93;;;10.20;;
50815;SDS011;39717;47.324;8.788;2023-02-28T06:55:04;12.23;;;9.60;;
50815;SDS011;39717;47.324;8.788;2023-02-28T06:57:30;13.83;;;9.60;;
50815;SDS011;39717;47.324;8.788;2023-02-28T07:00:00;13.03;;;9.80;;
50815;SDS011;39717;47.324;8.788;2023-02-28T07:02:28;14.27;;;9.47;;
50815;SDS011;39717;47.324;8.788;2023-02-28T07:04:54;12.77;;;10.00;;
50815;SDS011;39717;47.324;8.788;2023-02-28T07:07:20;13.93;;;10.10;;
50815;SDS011;39717;47.324;8.788;2023-02-28T07:09:46;12.23;;;8.73;;
50815;SDS011;39717;47.324;8.788;2023-02-28T07:12:12;14.87;;;9.90;;
50815;SDS011;39717;47.324;8.788;2023-02-28T07:14:38;11.43;;;9.07;;
50815;SDS011;39717;47.324;8.788;2023-02-28T07:17:06;12.30;;;8.60;;
50815;SDS011;39717;47.324;8.788;2023-02-28T07:19:32;12.53;;;9.83;;
50815;SDS011;39717;47.324;8.788;2023-02-28T07:21:58;12.77;;;8.80;;
50815;SDS011;39717;47.324;8.788;2023-02-28T07:24:26;14.30;;;9.20;;
50815;SDS011;39717;47.324;8.788;2023-02-28T07:26:53;14.07;;;9.47;;
50815;SDS011;39717;47.324;8.788;2023-02-28T07:29:19;14.50;;;9.67;;
50815;SDS011;39717;47.324;8.788;2023-02-28T07:31:45;13.23;;;9.67;;
50815;SDS011;39717;47.324;8.788;2023-02-28T07:34:12;12.63;;;9.20;;
50815;SDS011;39717;47.324;8.788;2023-02-28T07:36:38;15.67;;;10.33;;
50815;SDS011;39717;47.324;8.788;2023-02-28T07:39:05;13.57;;;9.30;;
50815;SDS011;39717;47.324;8.788;2023-02-28T07:41:31;11.57;;;8.23;;
50815;SDS011;39717;47.324;8.788;2023-02-28T07:43:59;13.27;;;10.13;;
50815;SDS011;39717;47.324;8.788;2023-02-28T07:46:26;13.37;;;9.20;;
50815;SDS011;39717;47.324;8.788;2023-02-28T07:48:54;12.60;;;9.27;;
50815;SDS011;39717;47.324;8.788;2023-02-28T07:51:24;12.80;;;8.80;;
50815;SDS011;39717;47.324;8.788;2023-02-28T07:53:50;14.07;;;10.20;;
50815;SDS011;39717;47.324;8.788;2023-02-28T07:56:16;12.33;;;8.53;;
50815;SDS011;39717;47.324;8.788;2023-02-28T07:58:42;13.13;;;8.90;;
50815;SDS011;39717;47.324;8.788;2023-02-28T08:01:09;13.90;;;9.30;;
50815;SDS011;39717;47.324;8.788;2023-02-28T08:03:35;13.60;;;8.90;;
50815;SDS011;39717;47.324;8.788;2023-02-28T08:06:03;15.83;;;9.77;;
50815;SDS011;39717;47.324;8.788;2023-02-28T08:08:29;13.63;;;8.43;;
50815;SDS011;39717;47.324;8.788;2023-02-28T08:11:02;13.67;;;9.43;;
50815;SDS011;39717;47.324;8.788;2023-02-28T08:13:29;12.63;;;9.50;;
50815;SDS011;39717;47.324;8.788;2023-02-28T08:15:55;13.37;;;9.27;;
50815;SDS011;39717;47.324;8.788;2023-02-28T08:18:21;13.93;;;8.73;;
50815;SDS011;39717;47.324;8.788;2023-02-28T08:20:48;13.40;;;9.90;;
50815;SDS011;39717;47.324;8.788;2023-02-28T08:23:14;12.73;;;9.20;;
50815;SDS011;39717;47.324;8.788;2023-02-28T08:25:40;13.77;;;9.13;;
50815;SDS011;39717;47.324;8.788;2023-02-28T08:28:06;13.27;;;9.60;;
50815;SDS011;39717;47.324;8.788;2023-02-28T08:30:33;13.00;;;8.90;;
50815;SDS011;39717;47.324;8.788;2023-02-28T08:32:59;10.63;;;6.70;;
50815;SDS011;39717;47.324;8.788;2023-02-28T08:35:26;14.07;;;9.37;;
50815;SDS011;39717;47.324;8.788;2023-02-28T08:37:52;14.90;;;9.90;;
50815;SDS011;39717;47.324;8.788;2023-02-28T08:40:19;12.70;;;8.87;;
50815;SDS011;39717;47.324;8.788;2023-02-28T08:42:45;14.70;;;9.43;;
50815;SDS011;39717;47.324;8.788;2023-02-28T08:45:12;13.63;;;9.50;;
50815;SDS011;39717;47.324;8.788;2023-02-28T08:47:39;13.37;;;8.97;;
50815;SDS011;39717;47.324;8.788;2023-02-28T08:50:05;13.87;;;9.33;;
50815;SDS011;39717;47.324;8.788;2023-02-28T08:52:32;16.37;;;8.83;;
50815;SDS011;39717;47.324;8.788;2023-02-28T08:54:58;12.33;;;9.07;;
50815;SDS011;39717;47.324;8.788;2023-02-28T08:57:24;12.13;;;9.27;;
50815;SDS011;39717;47.324;8.788;2023-02-28T08:59:51;12.37;;;9.07;;
50815;SDS011;39717;47.324;8.788;2023-02-28T09:02:18;11.80;;;8.53;;
50815;SDS011;39717;47.324;8.788;2023-02-28T09:04:44;13.97;;;9.77;;
50815;SDS011;39717;47.324;8.788;2023-02-28T09:07:11;13.90;;;9.23;;
50815;SDS011;39717;47.324;8.788;2023-02-28T09:09:37;13.50;;;9.97;;
50815;SDS011;39717;47.324;8.788;2023-02-28T09:12:18;12.80;;;8.70;;
50815;SDS011;39717;47.324;8.788;2023-02-28T09:14:44;11.80;;;8.63;;
50815;SDS011;39717;47.324;8.788;2023-02-28T09:17:11;13.77;;;9.33;;
50815;SDS011;39717;47.324;8.788;2023-02-28T09:19:37;11.60;;;9.20;;
50815;SDS011;39717;47.324;8.788;2023-02-28T09:22:03;13.27;;;8.90;;
50815;SDS011;39717;47.324;8.788;2023-02-28T09:24:29;14.13;;;9.40;;
50815;SDS011;39717;47.324;8.788;2023-02-28T09:26:56;11.13;;;8.87;;
50815;SDS011;39717;47.324;8.788;2023-02-28T09:29:23;13.40;;;8.93;;
50815;SDS011;39717;47.324;8.788;2023-02-28T09:31:49;12.53;;;9.60;;
50815;SDS011;39717;47.324;8.788;2023-02-28T09:34:15;11.30;;;8.57;;
50815;SDS011;39717;47.324;8.788;2023-02-28T09:36:42;12.70;;;8.70;;
50815;SDS011;39717;47.324;8.788;2023-02-28T09:39:09;13.23;;;10.00;;
50815;SDS011;39717;47.324;8.788;2023-02-28T09:41:37;13.93;;;9.10;;
50815;SDS011;39717;47.324;8.788;2023-02-28T09:44:11;13.97;;;9.20;;
50815;SDS011;39717;47.324;8.788;2023-02-28T09:46:40;13.13;;;9.03;;
50815;SDS011;39717;47.324;8.788;2023-02-28T09:49:19;13.57;;;9.13;;
50815;SDS011;39717;47.324;8.788;2023-02-28T09:54:23;12.83;;;9.60;;
50815;SDS011;39717;47.324;8.788;2023-02-28T09:59:25;14.00;;;9.63;;
50815;SDS011;39717;47.324;8.788;2023-02-28T10:09:45;13.63;;;9.37;;
50815;SDS011;39717;47.324;8.788;2023-02-28T10:12:12;15.23;;;10.43;;
50815;SDS011;39717;47.324;8.788;2023-02-28T10:14:40;12.77;;;9.20;;
50815;SDS011;39717;47.324;8.788;2023-02-28T10:17:17;13.20;;;9.47;;
50815;SDS011;39717;47.324;8.788;2023-02-28T10:20:01;12.03;;;9.30;;
50815;SDS011;39717;47.324;8.788;2023-02-28T10:22:34;15.13;;;9.73;;
50815;SDS011;39717;47.324;8.788;2023-02-28T10:25:20;11.90;;;8.73;;
50815;SDS011;39717;47.324;8.788;2023-02-28T10:27:47;12.90;;;8.90;;
50815;SDS011;39717;47.324;8.788;2023-02-28T10:30:13;16.27;;;10.00;;
50815;SDS011;39717;47.324;8.788;2023-02-28T10:32:39;16.00;;;10.57;;
50815;SDS011;39717;47.324;8.788;2023-02-28T10:35:10;14.30;;;9.57;;
50815;SDS011;39717;47.324;8.788;2023-02-28T10:37:38;12.50;;;9.17;;
50815;SDS011;39717;47.324;8.788;2023-02-28T10:40:05;12.93;;;9.40;;
50815;SDS011;39717;47.324;8.788;2023-02-28T10:42:33;15.47;;;10.10;;
50815;SDS011;39717;47.324;8.788;2023-02-28T10:47:33;14.40;;;9.83;;
50815;SDS011;39717;47.324;8.788;2023-02-28T10:50:01;13.47;;;9.63;;
50815;SDS011;39717;47.324;8.788;2023-02-28T10:52:37;14.13;;;10.20;;
50815;SDS011;39717;47.324;8.788;2023-02-28T10:55:23;13.83;;;9.70;;
50815;SDS011;39717;47.324;8.788;2023-02-28T10:57:51;12.00;;;10.17;;
50815;SDS011;39717;47.324;8.788;2023-02-28T11:00:21;14.63;;;9.73;;
50815;SDS011;39717;47.324;8.788;2023-02-28T11:02:48;12.67;;;9.53;;
50815;SDS011;39717;47.324;8.788;2023-02-28T11:07:53;12.20;;;9.43;;
50815;SDS011;39717;47.324;8.788;2023-02-28T11:10:21;12.13;;;9.47;;
50815;SDS011;39717;47.324;8.788;2023-02-28T11:12:50;16.43;;;10.87;;
50815;SDS011;39717;47.324;8.788;2023-02-28T11:15:38;14.10;;;10.07;;
50815;SDS011;39717;47.324;8.788;2023-02-28T11:20:50;14.87;;;9.77;;
50815;SDS011;39717;47.324;8.788;2023-02-28T11:23:17;13.60;;;9.50;;
50815;SDS011;39717;47.324;8.788;2023-02-28T11:25:55;14.70;;;9.87;;
50815;SDS011;39717;47.324;8.788;2023-02-28T11:28:27;12.23;;;8.47;;
50815;SDS011;39717;47.324;8.788;2023-02-28T11:33:42;13.73;;;10.17;;
50815;SDS011;39717;47.324;8.788;2023-02-28T11:36:11;14.23;;;10.50;;
50815;SDS011;39717;47.324;8.788;2023-02-28T11:38:40;12.23;;;9.33;;
50815;SDS011;39717;47.324;8.788;2023-02-28T11:41:14;15.27;;;9.30;;
50815;SDS011;39717;47.324;8.788;2023-02-28T11:49:00;14.53;;;9.17;;
50815;SDS011;39717;47.324;8.788;2023-02-28T11:51:35;12.63;;;10.00;;
50815;SDS011;39717;47.324;8.788;2023-02-28T11:54:23;14.40;;;10.23;;
50815;SDS011;39717;47.324;8.788;2023-02-28T11:56:57;14.03;;;10.00;;
50815;SDS011;39717;47.324;8.788;2023-02-28T12:02:20;13.20;;;10.23;;
50815;SDS011;39717;47.324;8.788;2023-02-28T12:07:22;15.33;;;10.53;;
50815;SDS011;39717;47.324;8.788;2023-02-28T12:28:01;11.33;;;8.50;;
50815;SDS011;39717;47.324;8.788;2023-02-28T12:30:29;12.90;;;9.20;;
50815;SDS011;39717;47.324;8.788;2023-02-28T12:33:04;10.67;;;9.13;;
50815;SDS011;39717;47.324;8.788;2023-02-28T12:35:39;12.07;;;8.97;;
50815;SDS011;39717;47.324;8.788;2023-02-28T12:38:14;12.50;;;9.87;;
50815;SDS011;39717;47.324;8.788;2023-02-28T12:40:45;12.90;;;9.70;;
50815;SDS011;39717;47.324;8.788;2023-02-28T12:43:13;13.57;;;10.43;;
50815;SDS011;39717;47.324;8.788;2023-02-28T12:45:42;12.63;;;9.63;;
50815;SDS011;39717;47.324;8.788;2023-02-28T12:48:14;13.97;;;9.97;;
50815;SDS011;39717;47.324;8.788;2023-02-28T12:50:41;13.97;;;9.93;;
50815;SDS011;39717;47.324;8.788;2023-02-28T12:53:25;11.07;;;9.27;;
50815;SDS011;39717;47.324;8.788;2023-02-28T12:58:22;14.83;;;10.53;;
50815;SDS011;39717;47.324;8.788;2023-02-28T13:01:08;13.93;;;10.20;;
50815;SDS011;39717;47.324;8.788;2023-02-28T13:09:08;13.57;;;9.97;;
50815;SDS011;39717;47.324;8.788;2023-02-28T13:11:39;14.67;;;10.30;;
50815;SDS011;39717;47.324;8.788;2023-02-28T13:14:20;13.40;;;9.70;;
50815;SDS011;39717;47.324;8.788;2023-02-28T13:16:48;15.47;;;10.87;;
50815;SDS011;39717;47.324;8.788;2023-02-28T13:19:17;13.60;;;10.17;;
50815;SDS011;39717;47.324;8.788;2023-02-28T13:21:45;14.93;;;11.20;;
50815;SDS011;39717;47.324;8.788;2023-02-28T13:24:11;14.87;;;11.07;;
50815;SDS011;39717;47.324;8.788;2023-02-28T13:27:20;17.70;;;10.70;;
50815;SDS011;39717;47.324;8.788;2023-02-28T13:29:50;16.37;;;11.13;;
50815;SDS011;39717;47.324;8.788;2023-02-28T13:42:33;14.93;;;10.93;;
50815;SDS011;39717;47.324;8.788;2023-02-28T13:50:21;14.53;;;10.37;;
50815;SDS011;39717;47.324;8.788;2023-02-28T14:00:21;15.73;;;10.23;;
50815;SDS011;39717;47.324;8.788;2023-02-28T14:05:32;15.57;;;10.77;;
50815;SDS011;39717;47.324;8.788;2023-02-28T14:08:00;16.43;;;10.90;;
50815;SDS011;39717;47.324;8.788;2023-02-28T14:10:31;16.07;;;10.93;;
50815;SDS011;39717;47.324;8.788;2023-02-28T14:12:59;14.30;;;10.40;;
50815;SDS011;39717;47.324;8.788;2023-02-28T14:20:42;15.93;;;11.00;;
50815;SDS011;39717;47.324;8.788;2023-02-28T14:25:37;16.20;;;10.77;;
50815;SDS011;39717;47.324;8.788;2023-02-28T14:38:25;15.57;;;11.00;;
50815;SDS011;39717;47.324;8.788;2023-02-28T14:40:54;15.43;;;10.60;;
50815;SDS011;39717;47.324;8.788;2023-02-28T14:43:22;15.27;;;10.83;;
50815;SDS011;39717;47.324;8.788;2023-02-28T14:45:53;15.70;;;11.40;;
50815;SDS011;39717;47.324;8.788;2023-02-28T14:48:21;15.70;;;10.73;;
50815;SDS011;39717;47.324;8.788;2023-02-28T14:50:48;15.90;;;11.03;;
50815;SDS011;39717;47.324;8.788;2023-02-28T14:53:16;16.50;;;11.53;;
50815;SDS011;39717;47.324;8.788;2023-02-28T14:55:44;14.63;;;10.93;;
50815;SDS011;39717;47.324;8.788;2023-02-28T14:58:27;16.23;;;11.50;;
50815;SDS011;39717;47.324;8.788;2023-02-28T15:00:55;15.37;;;10.90;;
50815;SDS011;39717;47.324;8.788;2023-02-28T15:03:23;16.17;;;11.20;;
50815;SDS011;39717;47.324;8.788;2023-02-28T15:08:19;17.10;;;10.47;;
50815;SDS011;39717;47.324;8.788;2023-02-28T15:13:18;15.70;;;11.37;;
50815;SDS011;39717;47.324;8.788;2023-02-28T15:18:15;18.10;;;12.43;;
50815;SDS011;39717;47.324;8.788;2023-02-28T15:20:42;19.20;;;12.47;;
50815;SDS011;39717;47.324;8.788;2023-02-28T15:23:10;15.40;;;11.07;;
50815;SDS011;39717;47.324;8.788;2023-02-28T15:25:36;14.53;;;11.13;;
50815;SDS011;39717;47.324;8.788;2023-02-28T15:28:03;15.47;;;11.40;;
50815;SDS011;39717;47.324;8.788;2023-02-28T15:30:29;14.33;;;10.80;;
50815;SDS011;39717;47.324;8.788;2023-02-28T15:35:37;18.83;;;11.83;;
50815;SDS011;39717;47.324;8.788;2023-02-28T15:38:25;15.67;;;11.53;;
50815;SDS011;39717;47.324;8.788;2023-02-28T15:40:51;16.73;;;12.07;;
50815;SDS011;39717;47.324;8.788;2023-02-28T15:43:27;18.20;;;11.67;;
50815;SDS011;39717;47.324;8.788;2023-02-28T15:46:13;16.07;;;11.37;;
50815;SDS011;39717;47.324;8.788;2023-02-28T15:48:53;16.93;;;11.93;;
50815;SDS011;39717;47.324;8.788;2023-02-28T15:51:22;19.30;;;12.73;;
50815;SDS011;39717;47.324;8.788;2023-02-28T15:53:51;16.73;;;12.27;;
50815;SDS011;39717;47.324;8.788;2023-02-28T15:56:22;17.13;;;12.13;;
50815;SDS011;39717;47.324;8.788;2023-02-28T15:58:50;20.33;;;13.53;;
50815;SDS011;39717;47.324;8.788;2023-02-28T16:01:25;17.53;;;12.57;;
50815;SDS011;39717;47.324;8.788;2023-02-28T16:04:01;21.03;;;13.33;;
50815;SDS011;39717;47.324;8.788;2023-02-28T16:08:56;17.80;;;12.17;;
50815;SDS011;39717;47.324;8.788;2023-02-28T16:11:22;17.73;;;12.60;;
50815;SDS011;39717;47.324;8.788;2023-02-28T16:13:49;19.37;;;13.27;;
50815;SDS011;39717;47.324;8.788;2023-02-28T16:16:21;18.70;;;13.73;;
50815;SDS011;39717;47.324;8.788;2023-02-28T16:18:48;23.93;;;15.00;;
50815;SDS011;39717;47.324;8.788;2023-02-28T16:21:14;17.90;;;13.30;;
50815;SDS011;39717;47.324;8.788;2023-02-28T16:23:40;19.20;;;13.63;;
50815;SDS011;39717;47.324;8.788;2023-02-28T16:26:06;18.33;;;13.70;;
50815;SDS011;39717;47.324;8.788;2023-02-28T16:28:34;19.80;;;14.17;;
50815;SDS011;39717;47.324;8.788;2023-02-28T16:31:01;20.40;;;13.73;;
50815;SDS011;39717;47.324;8.788;2023-02-28T16:33:28;20.70;;;13.37;;
50815;SDS011;39717;47.324;8.788;2023-02-28T16:35:54;20.53;;;13.60;;
50815;SDS011;39717;47.324;8.788;2023-02-28T16:38:20;22.63;;;14.37;;
50815;SDS011;39717;47.324;8.788;2023-02-28T16:40:49;20.73;;;14.13;;
50815;SDS011;39717;47.324;8.788;2023-02-28T16:43:19;20.93;;;13.43;;
50815;SDS011;39717;47.324;8.788;2023-02-28T16:45:48;20.73;;;13.50;;
50815;SDS011;39717;47.324;8.788;2023-02-28T16:48:16;23.07;;;13.97;;
50815;SDS011;39717;47.324;8.788;2023-02-28T16:50:43;18.87;;;12.50;;
50815;SDS011;39717;47.324;8.788;2023-02-28T16:53:09;21.13;;;13.93;;
50815;SDS011;39717;47.324;8.788;2023-02-28T16:55:35;19.43;;;12.83;;
50815;SDS011;39717;47.324;8.788;2023-02-28T16:58:03;20.60;;;14.07;;
50815;SDS011;39717;47.324;8.788;2023-02-28T17:00:31;19.03;;;13.37;;
50815;SDS011;39717;47.324;8.788;2023-02-28T17:02:57;19.90;;;13.53;;